sensor_id;sensor_type;location;lat;lon;timestamp;P1;P2;P0
66004;PMS7003;52775;52.262;21.100;2022-12-07T00:00:02;29;32;
66004;PMS7003;52775;52.262;21.100;2022-12-07T00:00:13;30;30;
66004;PMS7003;52775;52.262;21.100;2022-12-07T00:00:23;32;32;
66004;PMS7003;52775;52.262;21.100;2022-12-07T00:00:34;31;33;
66004;PMS7003;52775;52.262;21.100;2022-12-07T00:00:45;34;35;
66004;PMS7003;52775;52.262;21.100;2022-12-07T00:01:05;33;39;
66004;PMS7003;52775;52.262;21.100;2022-12-07T00:01:08;32;39;
66004;PMS7003;52775;52.262;21.100;2022-12-07T00:01:18;32;33;
66004;PMS7003;52775;52.262;21.100;2022-12-07T00:01:30;29;31;
66004;PMS7003;52775;52.262;21.100;2022-12-07T00:01:40;29;30;
66004;PMS7003;52775;52.262;21.100;2022-12-07T00:01:51;31;31;
66004;PMS7003;52775;52.262;21.100;2022-12-07T00:02:03;29;30;
66004;PMS7003;52775;52.262;21.100;2022-12-07T00:02:13;30;32;
66004;PMS7003;52775;52.262;21.100;2022-12-07T00:02:24;30;32;
66004;PMS7003;52775;52.262;21.100;2022-12-07T00:02:36;30;33;
66004;PMS7003;52775;52.262;21.100;2022-12-07T00:02:46;29;30;
66004;PMS7003;52775;52.262;21.100;2022-12-07T00:02:58;26;30;
66004;PMS7003;52775;52.262;21.100;2022-12-07T00:03:09;25;28;
66004;PMS7003;52775;52.262;21.100;2022-12-07T00:03:20;28;31;
66004;PMS7003;52775;52.262;21.100;2022-12-07T00:03:31;28;31;
66004;PMS7003;52775;52.262;21.100;2022-12-07T00:03:40;28;33;
66004;PMS7003;52775;52.262;21.100;2022-12-07T00:03:52;30;32;
66004;PMS7003;52775;52.262;21.100;2022-12-07T00:04:03;32;34;
66004;PMS7003;52775;52.262;21.100;2022-12-07T00:04:14;33;39;
66004;PMS7003;52775;52.262;21.100;2022-12-07T00:04:25;32;40;
66004;PMS7003;52775;52.262;21.100;2022-12-07T00:04:36;30;39;
66004;PMS7003;52775;52.262;21.100;2022-12-07T00:04:46;30;35;
66004;PMS7003;52775;52.262;21.100;2022-12-07T00:04:58;32;35;
66004;PMS7003;52775;52.262;21.100;2022-12-07T00:05:09;32;39;
66004;PMS7003;52775;52.262;21.100;2022-12-07T00:05:19;31;34;
66004;PMS7003;52775;52.262;21.100;2022-12-07T00:05:31;30;34;
66004;PMS7003;52775;52.262;21.100;2022-12-07T00:05:42;29;32;
66004;PMS7003;52775;52.262;21.100;2022-12-07T00:05:53;28;28;
66004;PMS7003;52775;52.262;21.100;2022-12-07T00:06:04;28;29;
66004;PMS7003;52775;52.262;21.100;2022-12-07T00:06:16;30;30;
66004;PMS7003;52775;52.262;21.100;2022-12-07T00:06:26;31;31;
66004;PMS7003;52775;52.262;21.100;2022-12-07T00:06:38;30;30;
66004;PMS7003;52775;52.262;21.100;2022-12-07T00:06:51;29;33;
66004;PMS7003;52775;52.262;21.100;2022-12-07T00:06:59;28;32;
66004;PMS7003;52775;52.262;21.100;2022-12-07T00:07:10;30;30;
66004;PMS7003;52775;52.262;21.100;2022-12-07T00:07:21;31;35;
66004;PMS7003;52775;52.262;21.100;2022-12-07T00:07:32;32;34;
66004;PMS7003;52775;52.262;21.100;2022-12-07T00:07:43;30;32;
66004;PMS7003;52775;52.262;21.100;2022-12-07T00:07:53;29;31;
66004;PMS7003;52775;52.262;21.100;2022-12-07T00:08:04;25;29;
66004;PMS7003;52775;52.262;21.100;2022-12-07T00:08:16;26;30;
66004;PMS7003;52775;52.262;21.100;2022-12-07T00:08:27;26;29;
66004;PMS7003;52775;52.262;21.100;2022-12-07T00:08:38;26;30;
66004;PMS7003;52775;52.262;21.100;2022-12-07T00:08:49;28;31;
66004;PMS7003;52775;52.262;21.100;2022-12-07T00:09:01;25;30;
66004;PMS7003;52775;52.262;21.100;2022-12-07T00:09:13;24;31;
66004;PMS7003;52775;52.262;21.100;2022-12-07T00:09:22;25;40;
66004;PMS7003;52775;52.262;21.100;2022-12-07T00:09:33;30;35;
66004;PMS7003;52775;52.262;21.100;2022-12-07T00:09:44;33;33;
66004;PMS7003;52775;52.262;21.100;2022-12-07T00:09:55;33;34;
66004;PMS7003;52775;52.262;21.100;2022-12-07T00:10:07;32;33;
66004;PMS7003;52775;52.262;21.100;2022-12-07T00:10:19;30;30;
66004;PMS7003;52775;52.262;21.100;2022-12-07T00:10:30;29;30;
66004;PMS7003;52775;52.262;21.100;2022-12-07T00:10:39;25;25;
66004;PMS7003;52775;52.262;21.100;2022-12-07T00:10:50;25;25;
66004;PMS7003;52775;52.262;21.100;2022-12-07T00:11:02;29;29;
66004;PMS7003;52775;52.262;21.100;2022-12-07T00:11:13;31;31;
66004;PMS7003;52775;52.262;21.100;2022-12-07T00:11:23;31;32;
66004;PMS7003;52775;52.262;21.100;2022-12-07T00:11:34;30;31;
66004;PMS7003;52775;52.262;21.100;2022-12-07T00:11:47;31;33;
66004;PMS7003;52775;52.262;21.100;2022-12-07T00:11:56;33;35;
66004;PMS7003;52775;52.262;21.100;2022-12-07T00:12:09;29;31;
66004;PMS7003;52775;52.262;21.100;2022-12-07T00:12:18;29;29;
66004;PMS7003;52775;52.262;21.100;2022-12-07T00:12:29;30;33;
66004;PMS7003;52775;52.262;21.100;2022-12-07T00:12:40;28;30;
66004;PMS7003;52775;52.262;21.100;2022-12-07T00:12:52;26;28;
66004;PMS7003;52775;52.262;21.100;2022-12-07T00:13:02;28;28;
66004;PMS7003;52775;52.262;21.100;2022-12-07T00:13:13;31;31;
66004;PMS7003;52775;52.262;21.100;2022-12-07T00:13:24;30;31;
66004;PMS7003;52775;52.262;21.100;2022-12-07T00:13:35;28;30;
66004;PMS7003;52775;52.262;21.100;2022-12-07T00:13:47;26;28;
66004;PMS7003;52775;52.262;21.100;2022-12-07T00:13:58;25;28;
66004;PMS7003;52775;52.262;21.100;2022-12-07T00:14:10;29;30;
66004;PMS7003;52775;52.262;21.100;2022-12-07T00:14:21;28;30;
66004;PMS7003;52775;52.262;21.100;2022-12-07T00:14:31;25;28;
66004;PMS7003;52775;52.262;21.100;2022-12-07T00:14:42;26;31;
66004;PMS7003;52775;52.262;21.100;2022-12-07T00:14:52;29;31;
66004;PMS7003;52775;52.262;21.100;2022-12-07T00:15:03;32;39;
66004;PMS7003;52775;52.262;21.100;2022-12-07T00:15:14;32;33;
66004;PMS7003;52775;52.262;21.100;2022-12-07T00:15:25;26;28;
66004;PMS7003;52775;52.262;21.100;2022-12-07T00:15:36;24;26;
66004;PMS7003;52775;52.262;21.100;2022-12-07T00:15:47;26;28;
66004;PMS7003;52775;52.262;21.100;2022-12-07T00:16:00;29;32;
66004;PMS7003;52775;52.262;21.100;2022-12-07T00:16:11;28;33;
66004;PMS7003;52775;52.262;21.100;2022-12-07T00:16:23;28;33;
66004;PMS7003;52775;52.262;21.100;2022-12-07T00:16:33;28;33;
66004;PMS7003;52775;52.262;21.100;2022-12-07T00:16:42;34;39;
66004;PMS7003;52775;52.262;21.100;2022-12-07T00:16:53;33;33;
66004;PMS7003;52775;52.262;21.100;2022-12-07T00:17:04;30;32;
66004;PMS7003;52775;52.262;21.100;2022-12-07T00:17:15;29;30;
66004;PMS7003;52775;52.262;21.100;2022-12-07T00:17:27;28;30;
66004;PMS7003;52775;52.262;21.100;2022-12-07T00:17:37;29;31;
66004;PMS7003;52775;52.262;21.100;2022-12-07T00:17:48;28;32;
66004;PMS7003;52775;52.262;21.100;2022-12-07T00:17:59;30;39;
66004;PMS7003;52775;52.262;21.100;2022-12-07T00:18:10;26;34;
66004;PMS7003;52775;52.262;21.100;2022-12-07T00:18:22;28;32;
66004;PMS7003;52775;52.262;21.100;2022-12-07T00:18:33;31;34;
66004;PMS7003;52775;52.262;21.100;2022-12-07T00:18:44;32;40;
66004;PMS7003;52775;52.262;21.100;2022-12-07T00:18:54;34;40;
66004;PMS7003;52775;52.262;21.100;2022-12-07T00:19:06;39;43;
66004;PMS7003;52775;52.262;21.100;2022-12-07T00:19:17;30;34;
66004;PMS7003;52775;52.262;21.100;2022-12-07T00:19:27;32;32;
66004;PMS7003;52775;52.262;21.100;2022-12-07T00:19:39;32;33;
66004;PMS7003;52775;52.262;21.100;2022-12-07T00:19:50;30;35;
66004;PMS7003;52775;52.262;21.100;2022-12-07T00:20:01;33;41;
66004;PMS7003;52775;52.262;21.100;2022-12-07T00:20:11;34;43;
66004;PMS7003;52775;52.262;21.100;2022-12-07T00:20:23;31;33;
66004;PMS7003;52775;52.262;21.100;2022-12-07T00:20:34;30;30;
66004;PMS7003;52775;52.262;21.100;2022-12-07T00:20:45;31;31;
66004;PMS7003;52775;52.262;21.100;2022-12-07T00:21:00;32;34;
66004;PMS7003;52775;52.262;21.100;2022-12-07T00:21:09;30;33;
66004;PMS7003;52775;52.262;21.100;2022-12-07T00:21:19;26;35;
66004;PMS7003;52775;52.262;21.100;2022-12-07T00:21:30;26;34;
66004;PMS7003;52775;52.262;21.100;2022-12-07T00:21:41;26;30;
66004;PMS7003;52775;52.262;21.100;2022-12-07T00:21:51;33;39;
66004;PMS7003;52775;52.262;21.100;2022-12-07T00:22:02;34;40;
66004;PMS7003;52775;52.262;21.100;2022-12-07T00:22:13;34;39;
66004;PMS7003;52775;52.262;21.100;2022-12-07T00:22:24;32;39;
66004;PMS7003;52775;52.262;21.100;2022-12-07T00:22:35;33;40;
66004;PMS7003;52775;52.262;21.100;2022-12-07T00:22:46;34;39;
66004;PMS7003;52775;52.262;21.100;2022-12-07T00:22:57;31;35;
66004;PMS7003;52775;52.262;21.100;2022-12-07T00:23:08;28;32;
66004;PMS7003;52775;52.262;21.100;2022-12-07T00:23:20;33;35;
66004;PMS7003;52775;52.262;21.100;2022-12-07T00:23:30;35;35;
66004;PMS7003;52775;52.262;21.100;2022-12-07T00:23:41;32;33;
66004;PMS7003;52775;52.262;21.100;2022-12-07T00:23:52;29;34;
66004;PMS7003;52775;52.262;21.100;2022-12-07T00:24:03;29;34;
66004;PMS7003;52775;52.262;21.100;2022-12-07T00:24:14;29;33;
66004;PMS7003;52775;52.262;21.100;2022-12-07T00:24:25;29;30;
66004;PMS7003;52775;52.262;21.100;2022-12-07T00:24:37;30;33;
66004;PMS7003;52775;52.262;21.100;2022-12-07T00:24:48;30;31;
66004;PMS7003;52775;52.262;21.100;2022-12-07T00:24:58;29;30;
66004;PMS7003;52775;52.262;21.100;2022-12-07T00:25:10;29;30;
66004;PMS7003;52775;52.262;21.100;2022-12-07T00:25:20;32;33;
66004;PMS7003;52775;52.262;21.100;2022-12-07T00:25:31;28;32;
66004;PMS7003;52775;52.262;21.100;2022-12-07T00:25:42;26;30;
66004;PMS7003;52775;52.262;21.100;2022-12-07T00:25:53;29;29;
66004;PMS7003;52775;52.262;21.100;2022-12-07T00:26:05;30;30;
66004;PMS7003;52775;52.262;21.100;2022-12-07T00:26:16;29;33;
66004;PMS7003;52775;52.262;21.100;2022-12-07T00:26:27;33;34;
66004;PMS7003;52775;52.262;21.100;2022-12-07T00:26:38;32;35;
66004;PMS7003;52775;52.262;21.100;2022-12-07T00:26:48;31;32;
66004;PMS7003;52775;52.262;21.100;2022-12-07T00:26:59;31;34;
66004;PMS7003;52775;52.262;21.100;2022-12-07T00:27:11;32;33;
66004;PMS7003;52775;52.262;21.100;2022-12-07T00:27:21;31;32;
66004;PMS7003;52775;52.262;21.100;2022-12-07T00:27:32;32;33;
66004;PMS7003;52775;52.262;21.100;2022-12-07T00:27:43;30;33;
66004;PMS7003;52775;52.262;21.100;2022-12-07T00:27:54;30;32;
66004;PMS7003;52775;52.262;21.100;2022-12-07T00:28:05;35;40;
66004;PMS7003;52775;52.262;21.100;2022-12-07T00:28:16;32;39;
66004;PMS7003;52775;52.262;21.100;2022-12-07T00:28:26;30;34;
66004;PMS7003;52775;52.262;21.100;2022-12-07T00:28:38;30;30;
66004;PMS7003;52775;52.262;21.100;2022-12-07T00:28:51;28;29;
66004;PMS7003;52775;52.262;21.100;2022-12-07T00:29:01;30;31;
66004;PMS7003;52775;52.262;21.100;2022-12-07T00:29:13;33;34;
66004;PMS7003;52775;52.262;21.100;2022-12-07T00:29:22;33;35;
66004;PMS7003;52775;52.262;21.100;2022-12-07T00:29:33;34;39;
66004;PMS7003;52775;52.262;21.100;2022-12-07T00:29:44;39;35;
66004;PMS7003;52775;52.262;21.100;2022-12-07T00:29:55;31;34;
66004;PMS7003;52775;52.262;21.100;2022-12-07T00:30:07;31;39;
66004;PMS7003;52775;52.262;21.100;2022-12-07T00:30:18;31;35;
66004;PMS7003;52775;52.262;21.100;2022-12-07T00:30:28;34;39;
66004;PMS7003;52775;52.262;21.100;2022-12-07T00:30:39;33;39;
66004;PMS7003;52775;52.262;21.100;2022-12-07T00:30:50;31;33;
66004;PMS7003;52775;52.262;21.100;2022-12-07T00:31:04;31;34;
66004;PMS7003;52775;52.262;21.100;2022-12-07T00:31:15;32;41;
66004;PMS7003;52775;52.262;21.100;2022-12-07T00:31:27;34;43;
66004;PMS7003;52775;52.262;21.100;2022-12-07T00:31:36;33;35;
66004;PMS7003;52775;52.262;21.100;2022-12-07T00:31:47;34;35;
66004;PMS7003;52775;52.262;21.100;2022-12-07T00:31:57;39;44;
66004;PMS7003;52775;52.262;21.100;2022-12-07T00:32:08;39;44;
66004;PMS7003;52775;52.262;21.100;2022-12-07T00:32:19;32;35;
66004;PMS7003;52775;52.262;21.100;2022-12-07T00:32:31;35;35;
66004;PMS7003;52775;52.262;21.100;2022-12-07T00:32:42;34;42;
66004;PMS7003;52775;52.262;21.100;2022-12-07T00:32:52;32;33;
66004;PMS7003;52775;52.262;21.100;2022-12-07T00:33:04;31;39;
66004;PMS7003;52775;52.262;21.100;2022-12-07T00:33:14;31;43;
66004;PMS7003;52775;52.262;21.100;2022-12-07T00:33:25;35;41;
66004;PMS7003;52775;52.262;21.100;2022-12-07T00:33:37;33;40;
66004;PMS7003;52775;52.262;21.100;2022-12-07T00:33:48;32;33;
66004;PMS7003;52775;52.262;21.100;2022-12-07T00:33:57;32;34;
66004;PMS7003;52775;52.262;21.100;2022-12-07T00:34:12;31;33;
66004;PMS7003;52775;52.262;21.100;2022-12-07T00:34:20;32;33;
66004;PMS7003;52775;52.262;21.100;2022-12-07T00:34:32;34;42;
66004;PMS7003;52775;52.262;21.100;2022-12-07T00:34:43;34;41;
66004;PMS7003;52775;52.262;21.100;2022-12-07T00:34:53;33;42;
66004;PMS7003;52775;52.262;21.100;2022-12-07T00:35:05;39;42;
66004;PMS7003;52775;52.262;21.100;2022-12-07T00:35:16;39;41;
66004;PMS7003;52775;52.262;21.100;2022-12-07T00:35:26;33;34;
66004;PMS7003;52775;52.262;21.100;2022-12-07T00:35:37;31;33;
66004;PMS7003;52775;52.262;21.100;2022-12-07T00:35:55;30;34;
66004;PMS7003;52775;52.262;21.100;2022-12-07T00:35:59;30;32;
66004;PMS7003;52775;52.262;21.100;2022-12-07T00:36:14;30;30;
66004;PMS7003;52775;52.262;21.100;2022-12-07T00:36:22;32;33;
66004;PMS7003;52775;52.262;21.100;2022-12-07T00:36:33;34;39;
66004;PMS7003;52775;52.262;21.100;2022-12-07T00:36:44;34;39;
66004;PMS7003;52775;52.262;21.100;2022-12-07T00:36:55;34;39;
66004;PMS7003;52775;52.262;21.100;2022-12-07T00:37:06;32;35;
66004;PMS7003;52775;52.262;21.100;2022-12-07T00:37:17;31;33;
66004;PMS7003;52775;52.262;21.100;2022-12-07T00:37:28;31;34;
66004;PMS7003;52775;52.262;21.100;2022-12-07T00:37:39;32;33;
66004;PMS7003;52775;52.262;21.100;2022-12-07T00:37:50;34;39;
66004;PMS7003;52775;52.262;21.100;2022-12-07T00:38:01;31;34;
66004;PMS7003;52775;52.262;21.100;2022-12-07T00:38:12;41;49;
66004;PMS7003;52775;52.262;21.100;2022-12-07T00:38:23;40;44;
66004;PMS7003;52775;52.262;21.100;2022-12-07T00:38:35;31;35;
66004;PMS7003;52775;52.262;21.100;2022-12-07T00:38:45;30;35;
66004;PMS7003;52775;52.262;21.100;2022-12-07T00:38:57;34;43;
66004;PMS7003;52775;52.262;21.100;2022-12-07T00:39:07;35;41;
66004;PMS7003;52775;52.262;21.100;2022-12-07T00:39:19;34;44;
66004;PMS7003;52775;52.262;21.100;2022-12-07T00:39:30;39;44;
66004;PMS7003;52775;52.262;21.100;2022-12-07T00:39:41;33;40;
66004;PMS7003;52775;52.262;21.100;2022-12-07T00:39:51;31;35;
66004;PMS7003;52775;52.262;21.100;2022-12-07T00:40:03;31;32;
66004;PMS7003;52775;52.262;21.100;2022-12-07T00:40:14;33;34;
66004;PMS7003;52775;52.262;21.100;2022-12-07T00:40:25;39;35;
66004;PMS7003;52775;52.262;21.100;2022-12-07T00:40:36;35;35;
66004;PMS7003;52775;52.262;21.100;2022-12-07T00:40:55;42;44;
66004;PMS7003;52775;52.262;21.100;2022-12-07T00:40:58;35;39;
66004;PMS7003;52775;52.262;21.100;2022-12-07T00:41:11;35;44;
66004;PMS7003;52775;52.262;21.100;2022-12-07T00:41:22;33;43;
66004;PMS7003;52775;52.262;21.100;2022-12-07T00:41:31;34;39;
66004;PMS7003;52775;52.262;21.100;2022-12-07T00:41:42;39;42;
66004;PMS7003;52775;52.262;21.100;2022-12-07T00:41:54;34;39;
66004;PMS7003;52775;52.262;21.100;2022-12-07T00:42:04;34;39;
66004;PMS7003;52775;52.262;21.100;2022-12-07T00:42:17;31;33;
66004;PMS7003;52775;52.262;21.100;2022-12-07T00:42:27;31;39;
66004;PMS7003;52775;52.262;21.100;2022-12-07T00:42:37;33;43;
66004;PMS7003;52775;52.262;21.100;2022-12-07T00:42:49;39;41;
66004;PMS7003;52775;52.262;21.100;2022-12-07T00:43:00;35;40;
66004;PMS7003;52775;52.262;21.100;2022-12-07T00:43:11;32;39;
66004;PMS7003;52775;52.262;21.100;2022-12-07T00:43:21;34;39;
66004;PMS7003;52775;52.262;21.100;2022-12-07T00:43:32;35;42;
66004;PMS7003;52775;52.262;21.100;2022-12-07T00:43:43;35;40;
66004;PMS7003;52775;52.262;21.100;2022-12-07T00:43:54;40;39;
66004;PMS7003;52775;52.262;21.100;2022-12-07T00:44:05;40;42;
66004;PMS7003;52775;52.262;21.100;2022-12-07T00:44:16;35;40;
66004;PMS7003;52775;52.262;21.100;2022-12-07T00:44:27;33;40;
66004;PMS7003;52775;52.262;21.100;2022-12-07T00:44:39;30;33;
66004;PMS7003;52775;52.262;21.100;2022-12-07T00:44:50;31;35;
66004;PMS7003;52775;52.262;21.100;2022-12-07T00:45:00;30;33;
66004;PMS7003;52775;52.262;21.100;2022-12-07T00:45:11;30;31;
66004;PMS7003;52775;52.262;21.100;2022-12-07T00:45:23;29;31;
66004;PMS7003;52775;52.262;21.100;2022-12-07T00:45:33;39;40;
66004;PMS7003;52775;52.262;21.100;2022-12-07T00:45:44;35;42;
66004;PMS7003;52775;52.262;21.100;2022-12-07T00:45:56;34;39;
66004;PMS7003;52775;52.262;21.100;2022-12-07T00:46:07;35;42;
66004;PMS7003;52775;52.262;21.100;2022-12-07T00:46:18;39;40;
66004;PMS7003;52775;52.262;21.100;2022-12-07T00:46:29;32;40;
66004;PMS7003;52775;52.262;21.100;2022-12-07T00:46:40;30;39;
66004;PMS7003;52775;52.262;21.100;2022-12-07T00:46:50;29;32;
66004;PMS7003;52775;52.262;21.100;2022-12-07T00:47:01;32;35;
66004;PMS7003;52775;52.262;21.100;2022-12-07T00:47:12;33;39;
66004;PMS7003;52775;52.262;21.100;2022-12-07T00:47:24;34;39;
66004;PMS7003;52775;52.262;21.100;2022-12-07T00:47:35;34;41;
66004;PMS7003;52775;52.262;21.100;2022-12-07T00:47:45;32;34;
66004;PMS7003;52775;52.262;21.100;2022-12-07T00:47:56;33;34;
66004;PMS7003;52775;52.262;21.100;2022-12-07T00:48:08;35;41;
66004;PMS7003;52775;52.262;21.100;2022-12-07T00:48:19;35;39;
66004;PMS7003;52775;52.262;21.100;2022-12-07T00:48:30;39;40;
66004;PMS7003;52775;52.262;21.100;2022-12-07T00:48:41;39;39;
66004;PMS7003;52775;52.262;21.100;2022-12-07T00:48:52;33;35;
66004;PMS7003;52775;52.262;21.100;2022-12-07T00:49:03;33;35;
66004;PMS7003;52775;52.262;21.100;2022-12-07T00:49:14;34;42;
66004;PMS7003;52775;52.262;21.100;2022-12-07T00:49:25;34;41;
66004;PMS7003;52775;52.262;21.100;2022-12-07T00:49:36;32;34;
66004;PMS7003;52775;52.262;21.100;2022-12-07T00:49:47;34;39;
66004;PMS7003;52775;52.262;21.100;2022-12-07T00:49:58;39;43;
66004;PMS7003;52775;52.262;21.100;2022-12-07T00:50:09;33;34;
66004;PMS7003;52775;52.262;21.100;2022-12-07T00:50:20;42;42;
66004;PMS7003;52775;52.262;21.100;2022-12-07T00:50:31;39;42;
66004;PMS7003;52775;52.262;21.100;2022-12-07T00:50:42;32;35;
66004;PMS7003;52775;52.262;21.100;2022-12-07T00:50:52;33;39;
66004;PMS7003;52775;52.262;21.100;2022-12-07T00:51:04;41;45;
66004;PMS7003;52775;52.262;21.100;2022-12-07T00:51:15;35;43;
66004;PMS7003;52775;52.262;21.100;2022-12-07T00:51:26;40;42;
66004;PMS7003;52775;52.262;21.100;2022-12-07T00:51:37;35;40;
66004;PMS7003;52775;52.262;21.100;2022-12-07T00:51:48;34;35;
66004;PMS7003;52775;52.262;21.100;2022-12-07T00:52:00;35;42;
66004;PMS7003;52775;52.262;21.100;2022-12-07T00:52:11;34;44;
66004;PMS7003;52775;52.262;21.100;2022-12-07T00:52:21;35;44;
66004;PMS7003;52775;52.262;21.100;2022-12-07T00:52:34;35;45;
66004;PMS7003;52775;52.262;21.100;2022-12-07T00:52:44;35;44;
66004;PMS7003;52775;52.262;21.100;2022-12-07T00:52:54;41;42;
66004;PMS7003;52775;52.262;21.100;2022-12-07T00:53:05;35;39;
66004;PMS7003;52775;52.262;21.100;2022-12-07T00:53:15;33;35;
66004;PMS7003;52775;52.262;21.100;2022-12-07T00:53:26;35;41;
66004;PMS7003;52775;52.262;21.100;2022-12-07T00:53:38;40;43;
66004;PMS7003;52775;52.262;21.100;2022-12-07T00:53:49;42;43;
66004;PMS7003;52775;52.262;21.100;2022-12-07T00:54:00;41;48;
66004;PMS7003;52775;52.262;21.100;2022-12-07T00:54:11;41;44;
66004;PMS7003;52775;52.262;21.100;2022-12-07T00:54:21;34;43;
66004;PMS7003;52775;52.262;21.100;2022-12-07T00:54:33;34;41;
66004;PMS7003;52775;52.262;21.100;2022-12-07T00:54:45;40;41;
66004;PMS7003;52775;52.262;21.100;2022-12-07T00:54:57;39;41;
66004;PMS7003;52775;52.262;21.100;2022-12-07T00:55:07;40;42;
66004;PMS7003;52775;52.262;21.100;2022-12-07T00:55:18;40;44;
66004;PMS7003;52775;52.262;21.100;2022-12-07T00:55:32;40;43;
66004;PMS7003;52775;52.262;21.100;2022-12-07T00:55:39;45;49;
66004;PMS7003;52775;52.262;21.100;2022-12-07T00:55:50;43;45;
66004;PMS7003;52775;52.262;21.100;2022-12-07T00:56:05;40;41;
66004;PMS7003;52775;52.262;21.100;2022-12-07T00:56:13;41;44;
66004;PMS7003;52775;52.262;21.100;2022-12-07T00:56:26;41;49;
66004;PMS7003;52775;52.262;21.100;2022-12-07T00:56:35;40;46;
66004;PMS7003;52775;52.262;21.100;2022-12-07T00:56:45;42;44;
66004;PMS7003;52775;52.262;21.100;2022-12-07T00:56:56;45;49;
66004;PMS7003;52775;52.262;21.100;2022-12-07T00:57:08;42;45;
66004;PMS7003;52775;52.262;21.100;2022-12-07T00:57:19;34;39;
66004;PMS7003;52775;52.262;21.100;2022-12-07T00:57:30;35;44;
66004;PMS7003;52775;52.262;21.100;2022-12-07T00:57:40;33;39;
66004;PMS7003;52775;52.262;21.100;2022-12-07T00:57:52;46;49;
66004;PMS7003;52775;52.262;21.100;2022-12-07T00:58:03;45;49;
66004;PMS7003;52775;52.262;21.100;2022-12-07T00:58:14;46;48;
66004;PMS7003;52775;52.262;21.100;2022-12-07T00:58:25;42;43;
66004;PMS7003;52775;52.262;21.100;2022-12-07T00:58:36;42;43;
66004;PMS7003;52775;52.262;21.100;2022-12-07T00:58:50;42;45;
66004;PMS7003;52775;52.262;21.100;2022-12-07T00:58:59;43;45;
66004;PMS7003;52775;52.262;21.100;2022-12-07T00:59:10;43;44;
66004;PMS7003;52775;52.262;21.100;2022-12-07T00:59:20;42;44;
66004;PMS7003;52775;52.262;21.100;2022-12-07T00:59:31;42;48;
66004;PMS7003;52775;52.262;21.100;2022-12-07T00:59:42;43;46;
66004;PMS7003;52775;52.262;21.100;2022-12-07T00:59:53;43;48;
66004;PMS7003;52775;52.262;21.100;2022-12-07T01:00:04;45;50;
66004;PMS7003;52775;52.262;21.100;2022-12-07T01:00:15;43;46;
66004;PMS7003;52775;52.262;21.100;2022-12-07T01:00:26;46;49;
66004;PMS7003;52775;52.262;21.100;2022-12-07T01:00:38;43;45;
66004;PMS7003;52775;52.262;21.100;2022-12-07T01:00:48;52;62;
66004;PMS7003;52775;52.262;21.100;2022-12-07T01:01:00;48;53;
66004;PMS7003;52775;52.262;21.100;2022-12-07T01:01:10;43;46;
66004;PMS7003;52775;52.262;21.100;2022-12-07T01:01:22;46;50;
66004;PMS7003;52775;52.262;21.100;2022-12-07T01:01:33;49;51;
66004;PMS7003;52775;52.262;21.100;2022-12-07T01:01:44;48;53;
66004;PMS7003;52775;52.262;21.100;2022-12-07T01:01:54;50;54;
66004;PMS7003;52775;52.262;21.100;2022-12-07T01:02:05;44;45;
66004;PMS7003;52775;52.262;21.100;2022-12-07T01:02:17;45;49;
66004;PMS7003;52775;52.262;21.100;2022-12-07T01:02:28;44;51;
66004;PMS7003;52775;52.262;21.100;2022-12-07T01:02:39;44;53;
66004;PMS7003;52775;52.262;21.100;2022-12-07T01:02:49;42;53;
66004;PMS7003;52775;52.262;21.100;2022-12-07T01:03:00;42;42;
66004;PMS7003;52775;52.262;21.100;2022-12-07T01:03:13;46;49;
66004;PMS7003;52775;52.262;21.100;2022-12-07T01:03:23;44;49;
66004;PMS7003;52775;52.262;21.100;2022-12-07T01:03:33;42;49;
66004;PMS7003;52775;52.262;21.100;2022-12-07T01:03:44;42;48;
66004;PMS7003;52775;52.262;21.100;2022-12-07T01:03:55;50;55;
66004;PMS7003;52775;52.262;21.100;2022-12-07T01:04:06;49;62;
66004;PMS7003;52775;52.262;21.100;2022-12-07T01:04:17;49;54;
66004;PMS7003;52775;52.262;21.100;2022-12-07T01:04:28;44;45;
66004;PMS7003;52775;52.262;21.100;2022-12-07T01:04:39;43;43;
66004;PMS7003;52775;52.262;21.100;2022-12-07T01:04:50;42;43;
66004;PMS7003;52775;52.262;21.100;2022-12-07T01:05:03;45;50;
66004;PMS7003;52775;52.262;21.100;2022-12-07T01:05:13;43;46;
66004;PMS7003;52775;52.262;21.100;2022-12-07T01:05:23;44;45;
66004;PMS7003;52775;52.262;21.100;2022-12-07T01:05:34;41;44;
66004;PMS7003;52775;52.262;21.100;2022-12-07T01:05:53;42;45;
66004;PMS7003;52775;52.262;21.100;2022-12-07T01:05:56;39;40;
66004;PMS7003;52775;52.262;21.100;2022-12-07T01:06:07;40;45;
66004;PMS7003;52775;52.262;21.100;2022-12-07T01:06:19;48;51;
66004;PMS7003;52775;52.262;21.100;2022-12-07T01:06:30;48;54;
66004;PMS7003;52775;52.262;21.100;2022-12-07T01:06:41;48;54;
66004;PMS7003;52775;52.262;21.100;2022-12-07T01:06:51;49;51;
66004;PMS7003;52775;52.262;21.100;2022-12-07T01:07:02;46;50;
66004;PMS7003;52775;52.262;21.100;2022-12-07T01:07:13;50;52;
66004;PMS7003;52775;52.262;21.100;2022-12-07T01:07:25;51;55;
66004;PMS7003;52775;52.262;21.100;2022-12-07T01:07:35;54;55;
66004;PMS7003;52775;52.262;21.100;2022-12-07T01:07:46;49;55;
66004;PMS7003;52775;52.262;21.100;2022-12-07T01:07:57;45;61;
66004;PMS7003;52775;52.262;21.100;2022-12-07T01:08:08;46;60;
66004;PMS7003;52775;52.262;21.100;2022-12-07T01:08:19;46;51;
66004;PMS7003;52775;52.262;21.100;2022-12-07T01:08:30;46;51;
66004;PMS7003;52775;52.262;21.100;2022-12-07T01:08:41;45;48;
66004;PMS7003;52775;52.262;21.100;2022-12-07T01:08:52;42;48;
66004;PMS7003;52775;52.262;21.100;2022-12-07T01:09:03;43;46;
66004;PMS7003;52775;52.262;21.100;2022-12-07T01:09:15;52;58;
66004;PMS7003;52775;52.262;21.100;2022-12-07T01:09:26;60;67;
66004;PMS7003;52775;52.262;21.100;2022-12-07T01:09:36;51;60;
66004;PMS7003;52775;52.262;21.100;2022-12-07T01:09:47;51;60;
66004;PMS7003;52775;52.262;21.100;2022-12-07T01:09:59;46;53;
66004;PMS7003;52775;52.262;21.100;2022-12-07T01:10:10;45;50;
66004;PMS7003;52775;52.262;21.100;2022-12-07T01:10:22;46;51;
66004;PMS7003;52775;52.262;21.100;2022-12-07T01:10:33;58;63;
66004;PMS7003;52775;52.262;21.100;2022-12-07T01:10:43;54;63;
66004;PMS7003;52775;52.262;21.100;2022-12-07T01:10:59;49;62;
66004;PMS7003;52775;52.262;21.100;2022-12-07T01:11:06;53;58;
66004;PMS7003;52775;52.262;21.100;2022-12-07T01:11:17;50;54;
66004;PMS7003;52775;52.262;21.100;2022-12-07T01:11:28;52;59;
66004;PMS7003;52775;52.262;21.100;2022-12-07T01:11:38;58;61;
66004;PMS7003;52775;52.262;21.100;2022-12-07T01:11:49;55;59;